首页
METAR-TAF:

METAR-TAF

机场 :

阿姆斯特丹史基浦機場

阿姆斯特丹, 荷兰

纬度: 52-18N, 经度: 004-46E, 海拔: -4米

当前天气观测

该预报发布于30分钟前的19:25 UTC
风速4节,风向,在北转西北东北之间变化
温度 4°C
湿度 93%
气压 1011 hPa
能见度10公里或以上
1500米以下无云,无积雨云

METAR: EHAM 171925Z 01004KT 330V040 CAVOK 04/03 Q1011 NOSIG

时间: 20:55 (19:55 UTC)

预报

该预报发布于2小时和55分钟前的17:00 UTC
预报有效从17日的 18点(UTC)到 18日的 24点(UTC)
风速6节,风向北转东北
能见度10公里或以上
1500米以下无云,无积雨云
短暂存在
从 18日的 00点(UTC)到 18日的 12点(UTC)
能見度: 7000
散云层高于2000英尺
多云层高于4000英尺
小雨
成为
从 18日的 12点(UTC)到 18日的 15点(UTC)
风速12节,风向北转西北
短暂存在
从 18日的 12点(UTC)到 18日的 24点(UTC)
能見度: 5000
散云层高于1800英尺, 积雨云.
多云层高于3000英尺
小阵雨, 小雨
几率 30% :
短暂存在
从 18日的 12点(UTC)到 18日的 15点(UTC)
风速13节,风向北转西北,有时为23节阵风
能見度: 4000
多云层高于1800英尺, 积雨云.
阵雨
成为
从 18日的 21点(UTC)到 18日的 24点(UTC)
风速9节,风向西转西北

TAF: EHAM 171700Z 1718/1824 03006KT CAVOK TEMPO 1800/1812 7000 -RA SCT020 BKN040 BECMG 1812/1815 34012KT TEMPO 1812/1824 5000 -SHRA -RA SCT018CB BKN030 PROB30 TEMPO 1812/1815 34013G23KT 4000 SHRA BKN018CB BECMG 1821/1824 30009KT

超过4000个机场的气象观测和天气预报(METAR&TAF报告)。

可查询的气象台以黄色和红色小点在地图上表示。

将鼠标移到小点上方,可查看气象台名称。

然后点击查看天气观测和预报。

如需切换地图:点击带黑十字的绿色按钮放大地图;点击带横线的绿色按钮缩小地图;或者点击绿色箭头查看邻近地区的地图。


METAR-TAF: